Terminal Aerodrome Forecast
Issued by NWS Goodland, KS

Home | Current Version | Previous Version | Text Only | Print | Product List | Glossary On
Versions: 1 2 3 4 5 6 7 8 9 10 11 12 13 14 15 16 17 18 19 20
000
FTUS43 KGLD 271123
TAFGLD
TAF
KGLD 271123Z 2712/2812 11005KT P6SM FEW027 OVC100
     FM272000 19015KT P6SM BKN050
     FM280300 15010KT P6SM TSRA OVC060CB
     FM280800 30010KT P6SM VCTS OVC060CB
     FM281000 33010KT P6SM OVC060=

USA.gov is the U.S. government's official web portal to all federal, state and local government web resources and services.